Time;durP1;ratioP1;P1;durP2;ratioP2;P2;SDS_P1;SDS_P2;PMS_P1;PMS_P2;Temp;Humidity;BMP_temperature;BMP_pressure;BME280_temperature;BME280_humidity;BME280_pressure;Samples;Min_cycle;Max_cycle;Signal;HPM_P1;HPM_P2
2023/03/11 00:00:17;;;;;;;0.23;0.17;;;;;;;5.01;63.08;94081.44;4389453;32;20288;-48
2023/03/11 00:02:44;;;;;;;0.10;0.10;;;;;;;5.04;66.67;94101.87;4378910;32;20204;-47
2023/03/11 00:05:15;;;;;;;0.10;0.10;;;;;;;4.92;65.53;94104.19;4393920;32;20295;-47
2023/03/11 00:07:40;;;;;;;0.10;0.10;;;;;;;5.02;65.37;94105.88;4385832;32;20302;-50
2023/03/11 00:10:07;;;;;;;0.10;0.10;;;;;;;4.94;64.08;94109.19;4378322;32;20276;-48
2023/03/11 00:12:32;;;;;;;0.10;0.10;;;;;;;4.81;64.06;94114.06;4391283;32;20184;-50
2023/03/11 00:14:58;;;;;;;0.10;0.10;;;;;;;4.76;62.70;94126.53;4385357;32;20287;-50
2023/03/11 00:17:23;;;;;;;0.23;0.23;;;;;;;4.89;62.59;94114.50;4378776;32;20266;-49
2023/03/11 00:19:48;;;;;;;0.20;0.20;;;;;;;5.03;62.61;94113.47;4367685;32;20203;-51
2023/03/11 00:22:14;;;;;;;0.20;0.20;;;;;;;4.72;60.84;94120.28;4392928;32;20203;-51
2023/03/11 00:24:39;;;;;;;0.10;0.10;;;;;;;4.74;61.33;94126.81;4389420;32;20188;-54
2023/03/11 00:27:05;;;;;;;0.10;0.10;;;;;;;4.75;62.25;94125.75;4391679;32;20189;-47
2023/03/11 00:29:32;;;;;;;0.40;0.40;;;;;;;4.76;62.21;94127.31;4378136;32;20184;-48
2023/03/11 00:31:58;;;;;;;0.20;0.20;;;;;;;4.84;62.04;94128.50;4380106;32;20331;-52
2023/03/11 00:34:24;;;;;;;0.70;0.27;;;;;;;4.80;60.93;94120.41;4391343;32;20283;-49
2023/03/11 00:36:49;;;;;;;3.40;0.40;;;;;;;4.72;60.42;94136.81;4392785;32;20296;-50
2023/03/11 00:39:15;;;;;;;0.10;0.10;;;;;;;4.59;61.51;94150.66;4384173;32;20236;-50
2023/03/11 00:41:40;;;;;;;4.73;0.40;;;;;;;4.49;63.71;94141.09;4393804;32;20214;-49
2023/03/11 00:44:05;;;;;;;0.03;0.03;;;;;;;4.54;60.20;94140.25;4393089;32;20185;-48
2023/03/11 00:46:31;;;;;;;0.20;0.20;;;;;;;4.49;60.53;94138.47;4379345;32;20295;-49
2023/03/11 00:48:56;;;;;;;0.23;0.23;;;;;;;4.33;60.63;94147.63;4373244;32;20243;-48
2023/03/11 00:51:21;;;;;;;0.10;0.10;;;;;;;4.37;60.84;94142.56;4375336;32;20230;-47
2023/03/11 00:53:47;;;;;;;2.77;0.20;;;;;;;4.42;63.05;94145.13;4367760;32;20259;-52
2023/03/11 00:56:14;;;;;;;0.00;0.00;;;;;;;4.36;62.24;94157.56;4387968;32;20205;-47
2023/03/11 00:58:41;;;;;;;0.00;0.00;;;;;;;4.14;62.99;94159.94;4393101;32;20207;-51
2023/03/11 01:01:17;;;;;;;0.10;0.10;;;;;;;4.34;61.96;94164.16;4385474;32;20296;-48
2023/03/11 01:03:43;;;;;;;0.30;0.23;;;;;;;4.45;61.94;94165.56;4387075;32;20299;-50
2023/03/11 01:06:08;;;;;;;0.10;0.10;;;;;;;4.30;62.20;94174.44;4391888;32;20307;-51
2023/03/11 01:08:34;;;;;;;0.23;0.23;;;;;;;4.19;61.88;94174.81;4385343;32;20208;-49
2023/03/11 01:11:00;;;;;;;0.10;0.10;;;;;;;4.21;63.30;94170.84;4387083;32;20249;-52
2023/03/11 01:13:27;;;;;;;0.10;0.10;;;;;;;4.17;62.91;94184.81;4380351;32;20180;-48
2023/03/11 01:15:53;;;;;;;0.30;0.30;;;;;;;4.30;63.00;94178.91;4380103;32;20231;-50
2023/03/11 01:18:22;;;;;;;0.10;0.10;;;;;;;4.20;62.58;94165.88;4375738;32;20327;-49
2023/03/11 01:20:48;;;;;;;0.10;0.10;;;;;;;4.20;62.85;94171.13;4384933;32;20196;-49
2023/03/11 01:23:18;;;;;;;0.40;0.30;;;;;;;4.13;63.75;94174.91;4378949;32;20339;-48
2023/03/11 01:25:44;;;;;;;0.40;0.40;;;;;;;4.26;62.84;94172.63;4392151;32;20303;-51
2023/03/11 01:28:10;;;;;;;0.13;0.13;;;;;;;4.24;63.57;94175.53;4390626;32;20291;-50
2023/03/11 01:30:38;;;;;;;0.30;0.30;;;;;;;4.16;63.03;94167.53;4391336;32;20204;-53
2023/03/11 01:33:05;;;;;;;0.00;0.00;;;;;;;4.05;63.32;94182.59;4383366;32;20272;-51
2023/03/11 01:35:31;;;;;;;0.30;0.30;;;;;;;3.99;63.31;94176.63;4390262;32;20298;-49
2023/03/11 01:37:57;;;;;;;0.00;0.00;;;;;;;3.95;63.03;94180.88;4388334;32;20288;-49
2023/03/11 01:40:25;;;;;;;0.20;0.20;;;;;;;4.09;64.09;94194.88;4376696;32;20249;-48
2023/03/11 01:42:50;;;;;;;0.30;0.30;;;;;;;4.03;64.21;94188.13;4378213;32;20292;-48
2023/03/11 01:46:01;;;;;;;0.10;0.10;;;;;;;4.14;63.43;94192.22;4377556;32;20291;-50
2023/03/11 01:48:28;;;;;;;0.00;0.00;;;;;;;4.09;64.59;94194.09;4371255;32;20243;-49
2023/03/11 01:50:55;;;;;;;0.33;0.27;;;;;;;4.12;64.57;94201.41;4388041;32;20296;-49
2023/03/11 01:53:21;;;;;;;0.33;0.20;;;;;;;4.02;63.63;94197.06;4384604;32;20338;-49
2023/03/11 01:55:47;;;;;;;0.10;0.10;;;;;;;4.03;63.75;94195.22;4376012;32;20352;-50
2023/03/11 01:58:23;;;;;;;0.10;0.10;;;;;;;3.97;64.19;94199.72;4385120;32;20250;-47
2023/03/11 02:00:49;;;;;;;0.00;0.00;;;;;;;3.91;64.60;94190.38;4383923;32;20327;-48
2023/03/11 02:03:21;;;;;;;0.10;0.10;;;;;;;3.82;64.03;94202.53;4381727;32;20303;-47
2023/03/11 02:05:48;;;;;;;0.00;0.00;;;;;;;3.85;64.64;94199.34;4377757;32;20283;-51
2023/03/11 02:08:14;;;;;;;0.00;0.00;;;;;;;4.02;62.92;94202.31;4389282;32;20291;-47
2023/03/11 02:10:41;;;;;;;0.53;0.53;;;;;;;3.73;63.17;94196.34;4391646;32;20285;-51
2023/03/11 02:13:06;;;;;;;0.17;0.17;;;;;;;3.73;62.87;94198.97;4368767;32;20196;-48
2023/03/11 02:15:32;;;;;;;0.30;0.20;;;;;;;3.85;62.07;94194.09;4373164;32;20387;-46
2023/03/11 02:17:58;;;;;;;0.33;0.33;;;;;;;3.99;61.97;94196.81;4384705;32;20259;-47
2023/03/11 02:20:31;;;;;;;0.27;0.27;;;;;;;3.85;61.50;94201.97;4368663;32;20196;-48
2023/03/11 02:22:59;;;;;;;0.50;0.50;;;;;;;3.91;61.55;94193.00;4373896;32;20285;-48
2023/03/11 02:25:41;;;;;;;0.40;0.40;;;;;;;3.53;62.32;94207.81;4388705;32;20281;-48
2023/03/11 02:28:10;;;;;;;0.47;0.47;;;;;;;3.60;62.23;94217.94;4382090;32;20273;-49
2023/03/11 02:30:37;;;;;;;0.40;0.40;;;;;;;3.64;62.44;94216.34;4391266;32;20301;-50
2023/03/11 02:33:03;;;;;;;0.57;0.57;;;;;;;3.52;62.54;94208.09;4377375;32;20298;-50
2023/03/11 02:35:30;;;;;;;0.10;0.10;;;;;;;3.55;63.13;94225.84;4375586;32;20284;-48
2023/03/11 02:37:55;;;;;;;0.10;0.10;;;;;;;3.63;63.14;94218.19;4388696;32;20246;-48
2023/03/11 02:40:21;;;;;;;0.27;0.27;;;;;;;3.54;63.23;94227.69;4374779;32;20287;-49
2023/03/11 02:42:48;;;;;;;0.00;0.00;;;;;;;3.61;62.81;94240.50;4374627;32;20199;-50
2023/03/11 02:45:16;;;;;;;0.13;0.13;;;;;;;3.58;64.56;94231.34;4388366;32;20274;-48
2023/03/11 02:47:41;;;;;;;0.10;0.10;;;;;;;3.65;62.09;94237.06;4391150;32;20275;-50
2023/03/11 02:50:10;;;;;;;0.00;0.00;;;;;;;3.50;62.66;94220.69;4385715;32;20322;-49
2023/03/11 02:52:36;;;;;;;0.20;0.20;;;;;;;3.53;63.21;94218.28;4372876;32;20232;-49
2023/03/11 02:55:02;;;;;;;0.00;0.00;;;;;;;3.55;64.20;94220.62;4387713;32;20488;-46
2023/03/11 02:57:28;;;;;;;0.03;0.03;;;;;;;3.57;63.37;94228.97;4389270;32;20269;-51
2023/03/11 02:59:53;;;;;;;0.20;0.20;;;;;;;3.45;63.48;94234.59;4370166;32;20280;-47
2023/03/11 03:02:19;;;;;;;0.20;0.20;;;;;;;3.42;65.18;94230.69;4372820;32;20196;-48
2023/03/11 03:04:44;;;;;;;0.00;0.00;;;;;;;3.33;63.21;94234.16;4390578;32;20189;-47
2023/03/11 03:07:10;;;;;;;0.00;0.00;;;;;;;3.30;63.26;94242.59;4393242;32;20195;-49
2023/03/11 03:09:36;;;;;;;0.10;0.10;;;;;;;3.40;62.93;94235.44;4373847;32;20180;-49
2023/03/11 03:12:02;;;;;;;0.10;0.10;;;;;;;3.42;62.27;94238.56;4387455;32;20264;-49
2023/03/11 03:14:27;;;;;;;0.20;0.20;;;;;;;3.30;62.04;94251.25;4391003;32;20199;-46
2023/03/11 03:16:53;;;;;;;0.10;0.10;;;;;;;3.47;62.08;94250.06;4390621;32;20292;-50
2023/03/11 03:19:18;;;;;;;0.00;0.00;;;;;;;3.42;62.00;94248.25;4390449;32;20203;-49
2023/03/11 03:21:44;;;;;;;0.00;0.00;;;;;;;3.53;62.74;94255.00;4387130;32;20203;-49
2023/03/11 03:24:09;;;;;;;0.00;0.00;;;;;;;3.41;62.10;94252.72;4393396;32;20199;-47
2023/03/11 03:26:36;;;;;;;0.20;0.20;;;;;;;3.48;61.31;94246.37;4375183;32;20199;-49
2023/03/11 03:29:01;;;;;;;0.20;0.20;;;;;;;3.26;61.91;94257.31;4389542;32;20219;-51
2023/03/11 03:31:26;;;;;;;0.03;0.03;;;;;;;3.37;61.80;94259.56;4390439;32;20291;-53
2023/03/11 03:33:51;;;;;;;0.10;0.10;;;;;;;3.26;62.09;94271.19;4374398;32;20294;-52
2023/03/11 03:36:17;;;;;;;0.00;0.00;;;;;;;3.32;62.52;94259.63;4391016;32;20200;-49
2023/03/11 03:38:42;;;;;;;0.43;0.43;;;;;;;3.28;63.51;94271.69;4387560;32;20203;-50
2023/03/11 03:41:08;;;;;;;0.10;0.10;;;;;;;3.22;63.45;94249.19;4378022;32;20181;-51
2023/03/11 03:43:33;;;;;;;0.10;0.10;;;;;;;3.14;61.88;94256.84;4374462;32;20184;-50
2023/03/11 03:46:01;;;;;;;0.20;0.20;;;;;;;3.19;62.60;94272.53;4375429;32;20212;-47
2023/03/11 03:48:27;;;;;;;0.10;0.10;;;;;;;3.17;62.62;94278.06;4377002;32;20188;-50
2023/03/11 03:50:52;;;;;;;0.10;0.10;;;;;;;3.25;61.79;94282.72;4390397;32;20357;-49
2023/03/11 03:53:18;;;;;;;0.17;0.17;;;;;;;3.38;61.00;94292.56;4382227;32;20278;-49
2023/03/11 03:55:43;;;;;;;0.00;0.00;;;;;;;3.28;60.58;94279.56;4378046;32;20192;-49
2023/03/11 03:58:08;;;;;;;0.10;0.10;;;;;;;3.34;61.34;94267.97;4393902;32;20203;-48
2023/03/11 04:00:34;;;;;;;0.10;0.10;;;;;;;3.33;60.79;94271.63;4375088;32;20194;-49
2023/03/11 04:03:00;;;;;;;0.37;0.20;;;;;;;3.31;60.86;94270.37;4390849;32;20184;-47
2023/03/11 04:05:25;;;;;;;0.17;0.17;;;;;;;3.31;60.91;94273.78;4392966;32;20233;-47
2023/03/11 04:07:51;;;;;;;0.10;0.10;;;;;;;3.33;60.92;94271.63;4390718;32;20252;-49
2023/03/11 04:10:17;;;;;;;0.00;0.00;;;;;;;3.20;61.63;94288.00;4379166;32;20188;-47
2023/03/11 04:12:42;;;;;;;0.30;0.30;;;;;;;3.31;61.30;94286.88;4393102;32;20311;-48
2023/03/11 04:15:08;;;;;;;0.20;0.20;;;;;;;3.18;61.30;94287.47;4381349;32;20200;-48
2023/03/11 04:17:33;;;;;;;0.10;0.10;;;;;;;3.34;61.73;94288.94;4382984;32;20211;-50
2023/03/11 04:19:59;;;;;;;0.40;0.40;;;;;;;3.08;61.89;94285.72;4387904;32;20268;-48
2023/03/11 04:22:24;;;;;;;0.00;0.00;;;;;;;3.27;61.21;94283.25;4393095;32;20219;-47
2023/03/11 04:24:49;;;;;;;0.20;0.20;;;;;;;3.08;61.89;94282.31;4390756;32;20196;-47
2023/03/11 04:27:15;;;;;;;0.00;0.00;;;;;;;2.96;61.80;94271.38;4380154;32;20192;-48
2023/03/11 04:29:40;;;;;;;0.00;0.00;;;;;;;3.18;61.38;94279.63;4392348;32;20185;-49
2023/03/11 04:32:06;;;;;;;0.10;0.10;;;;;;;3.16;61.87;94280.94;4373435;32;20188;-46
2023/03/11 04:34:31;;;;;;;0.00;0.00;;;;;;;2.87;63.18;94286.91;4392215;32;23208;-47
2023/03/11 04:36:56;;;;;;;0.00;0.00;;;;;;;3.06;62.70;94287.81;4393514;32;20224;-51
2023/03/11 04:39:22;;;;;;;0.00;0.00;;;;;;;2.72;63.01;94279.88;4392693;32;20188;-52
2023/03/11 04:41:47;;;;;;;0.30;0.30;;;;;;;3.04;63.34;94279.44;4392662;32;20211;-48
2023/03/11 04:44:13;;;;;;;0.17;0.17;;;;;;;3.23;62.84;94276.97;4389537;32;20197;-49
2023/03/11 04:46:38;;;;;;;0.00;0.00;;;;;;;3.25;62.48;94274.06;4391027;32;20193;-51
2023/03/11 04:49:03;;;;;;;0.00;0.00;;;;;;;3.22;62.27;94290.34;4377419;32;20242;-50
2023/03/11 04:51:29;;;;;;;0.00;0.00;;;;;;;3.28;61.85;94290.03;4388775;32;20223;-51
2023/03/11 04:53:55;;;;;;;0.00;0.00;;;;;;;2.95;62.91;94283.69;4392696;32;20192;-49
2023/03/11 04:56:20;;;;;;;0.47;0.47;;;;;;;2.93;63.53;94298.09;4392139;32;20276;-50
2023/03/11 04:58:45;;;;;;;0.00;0.00;;;;;;;2.96;63.16;94297.56;4391917;32;20185;-48
2023/03/11 05:01:11;;;;;;;0.10;0.10;;;;;;;3.04;63.46;94297.00;4378221;32;20184;-52
2023/03/11 05:03:36;;;;;;;0.00;0.00;;;;;;;3.18;63.31;94310.28;4390947;32;20198;-49
2023/03/11 05:06:01;;;;;;;0.07;0.07;;;;;;;3.28;62.44;94312.84;4374058;32;20295;-52
2023/03/11 05:08:27;;;;;;;0.00;0.00;;;;;;;3.24;62.66;94304.75;4388844;32;20241;-48
2023/03/11 05:10:52;;;;;;;0.07;0.07;;;;;;;3.30;62.43;94310.75;4387922;32;20173;-47
2023/03/11 05:13:19;;;;;;;0.00;0.00;;;;;;;3.12;62.81;94318.16;4388810;32;20276;-49
2023/03/11 05:15:47;;;;;;;0.50;0.50;;;;;;;3.26;63.02;94313.13;4382985;32;20242;-49
2023/03/11 05:18:14;;;;;;;0.20;0.20;;;;;;;3.22;64.37;94325.19;4392105;32;20276;-50
2023/03/11 05:20:39;;;;;;;0.63;0.27;;;;;;;3.08;63.89;94332.09;4393864;32;20276;-48
2023/03/11 05:23:05;;;;;;;0.10;0.10;;;;;;;3.21;63.73;94322.84;4392211;32;20304;-50
2023/03/11 05:25:30;;;;;;;0.00;0.00;;;;;;;3.20;63.77;94329.13;4377912;32;20227;-50
2023/03/11 05:27:55;;;;;;;0.20;0.20;;;;;;;3.30;63.71;94316.75;4377067;32;20192;-49
2023/03/11 05:30:21;;;;;;;0.10;0.10;;;;;;;3.26;63.21;94336.69;4369423;32;20260;-49
2023/03/11 05:32:47;;;;;;;0.10;0.10;;;;;;;3.28;64.02;94321.50;4378115;32;20260;-47
2023/03/11 05:35:13;;;;;;;0.10;0.10;;;;;;;3.34;63.56;94330.87;4381245;32;20224;-46
2023/03/11 05:37:38;;;;;;;0.00;0.00;;;;;;;3.27;64.08;94340.88;4389037;32;20287;-49
2023/03/11 05:40:06;;;;;;;0.10;0.10;;;;;;;3.39;64.16;94337.91;4389569;32;20211;-47
2023/03/11 05:42:33;;;;;;;0.10;0.10;;;;;;;3.34;66.18;94351.03;4391634;32;22058;-49
2023/03/11 05:44:58;;;;;;;0.20;0.20;;;;;;;3.45;64.42;94342.88;4392079;32;20300;-46
2023/03/11 05:47:23;;;;;;;0.10;0.10;;;;;;;3.32;64.91;94346.09;4382371;32;20288;-46
2023/03/11 05:49:48;;;;;;;0.23;0.23;;;;;;;3.22;64.60;94348.78;4385844;32;20232;-47
2023/03/11 05:52:14;;;;;;;0.07;0.07;;;;;;;3.40;67.13;94352.59;4378439;32;20281;-49
2023/03/11 05:54:40;;;;;;;0.10;0.10;;;;;;;3.46;65.04;94351.50;4384097;32;20199;-49
2023/03/11 05:57:05;;;;;;;0.27;0.27;;;;;;;3.48;63.92;94357.25;4387552;32;20181;-47
2023/03/11 05:59:31;;;;;;;0.43;0.43;;;;;;;3.14;63.34;94359.03;4386400;32;20189;-47
2023/03/11 06:01:57;;;;;;;0.23;0.23;;;;;;;3.27;62.78;94356.59;4378513;32;20185;-47
2023/03/11 06:04:22;;;;;;;0.20;0.20;;;;;;;3.25;63.33;94350.84;4377610;32;20307;-46
2023/03/11 06:06:48;;;;;;;0.00;0.00;;;;;;;3.22;61.32;94355.84;4377772;32;20216;-45
2023/03/11 06:09:14;;;;;;;0.03;0.03;;;;;;;3.33;61.64;94365.19;4378157;32;20191;-49
2023/03/11 06:11:40;;;;;;;0.00;0.00;;;;;;;3.41;61.64;94359.41;4392730;32;20207;-47
2023/03/11 06:14:10;;;;;;;0.10;0.10;;;;;;;3.29;61.37;94358.97;4388597;32;20280;-47
2023/03/11 06:16:35;;;;;;;4.13;0.33;;;;;;;3.29;60.40;94361.59;4369368;32;20207;-46
2023/03/11 06:19:01;;;;;;;0.20;0.20;;;;;;;3.33;61.38;94366.00;4390674;32;20272;-46
2023/03/11 06:21:26;;;;;;;0.00;0.00;;;;;;;3.47;60.06;94370.66;4387604;32;20192;-46
2023/03/11 06:23:52;;;;;;;0.40;0.30;;;;;;;3.29;60.46;94375.47;4391510;32;20184;-48
2023/03/11 06:26:20;;;;;;;0.00;0.00;;;;;;;3.23;60.20;94388.84;4380902;32;20276;-46
2023/03/11 06:28:46;;;;;;;0.00;0.00;;;;;;;3.25;60.41;94381.50;4390183;32;20233;-49
2023/03/11 06:31:18;;;;;;;0.00;0.00;;;;;;;3.09;58.60;94386.84;4392093;32;20277;-48
2023/03/11 06:33:43;;;;;;;0.00;0.00;;;;;;;2.94;59.59;94389.50;4383280;32;20288;-46
2023/03/11 06:36:11;;;;;;;0.00;0.00;;;;;;;3.06;58.78;94389.22;4392559;32;20283;-45
2023/03/11 06:38:36;;;;;;;0.30;0.30;;;;;;;2.90;59.02;94392.94;4389695;32;20241;-47
2023/03/11 06:41:03;;;;;;;0.17;0.17;;;;;;;2.90;59.40;94401.59;4389805;32;20381;-52
2023/03/11 06:43:30;;;;;;;0.10;0.10;;;;;;;3.16;58.53;94409.31;4376404;32;20291;-49
2023/03/11 06:45:55;;;;;;;0.50;0.43;;;;;;;3.30;59.22;94405.87;4374747;32;20337;-49
2023/03/11 06:48:21;;;;;;;0.10;0.10;;;;;;;3.11;57.38;94410.16;4390888;32;20276;-51
2023/03/11 06:50:53;;;;;;;0.47;0.47;;;;;;;3.14;57.20;94404.34;4387751;32;20193;-45
2023/03/11 06:53:19;;;;;;;0.03;0.03;;;;;;;3.12;58.07;94412.47;4377756;32;20268;-50
2023/03/11 06:55:44;;;;;;;0.30;0.30;;;;;;;3.22;56.40;94410.88;4376554;32;20355;-50
2023/03/11 06:58:09;;;;;;;0.43;0.43;;;;;;;3.36;57.03;94412.63;4393672;32;20203;-49
2023/03/11 07:00:35;;;;;;;0.87;0.50;;;;;;;3.17;56.94;94421.37;4391152;32;20195;-50
2023/03/11 07:03:00;;;;;;;0.80;0.37;;;;;;;3.21;57.30;94425.03;4373811;32;20288;-49
2023/03/11 07:05:26;;;;;;;0.17;0.17;;;;;;;3.36;57.03;94432.81;4390963;32;20242;-48
2023/03/11 07:07:54;;;;;;;0.20;0.20;;;;;;;3.22;56.88;94427.38;4389202;32;20229;-48
2023/03/11 07:10:20;;;;;;;0.20;0.20;;;;;;;2.88;57.38;94442.97;4372335;32;20246;-47
2023/03/11 07:12:45;;;;;;;0.00;0.00;;;;;;;3.25;57.20;94441.78;4390541;32;20368;-50
2023/03/11 07:15:10;;;;;;;0.10;0.10;;;;;;;2.88;58.35;94450.03;4376060;32;20180;-47
2023/03/11 07:17:36;;;;;;;0.30;0.30;;;;;;;2.76;60.24;94453.72;4391133;32;20201;-48
2023/03/11 07:20:01;;;;;;;0.10;0.10;;;;;;;2.75;59.46;94452.16;4375189;32;20321;-50
2023/03/11 07:22:27;;;;;;;0.30;0.30;;;;;;;2.92;61.95;94456.28;4369368;32;20189;-46
2023/03/11 07:24:52;;;;;;;3.70;0.20;;;;;;;2.74;59.72;94463.69;4386287;32;20242;-52
2023/03/11 07:27:17;;;;;;;0.20;0.20;;;;;;;2.78;60.68;94468.37;4390536;32;20206;-49
2023/03/11 07:29:43;;;;;;;0.40;0.40;;;;;;;2.81;61.80;94476.50;4390493;32;20196;-49
2023/03/11 07:32:09;;;;;;;0.20;0.20;;;;;;;2.99;61.05;94475.16;4395213;32;20196;-50
2023/03/11 07:34:34;;;;;;;0.50;0.50;;;;;;;2.95;63.08;94474.87;4376473;32;20195;-51
2023/03/11 07:37:00;;;;;;;0.13;0.13;;;;;;;2.98;61.47;94484.84;4391407;32;20249;-51
2023/03/11 07:39:25;;;;;;;0.10;0.10;;;;;;;2.93;60.62;94490.09;4379749;32;20214;-49
2023/03/11 07:41:50;;;;;;;0.10;0.10;;;;;;;2.96;60.66;94491.37;4393980;32;20222;-49
2023/03/11 07:44:16;;;;;;;0.10;0.10;;;;;;;2.80;61.90;94488.03;4389593;32;20278;-49
2023/03/11 07:46:43;;;;;;;0.10;0.10;;;;;;;2.80;61.04;94497.72;4388831;32;20248;-48
2023/03/11 07:49:08;;;;;;;0.30;0.30;;;;;;;2.79;61.57;94498.75;4384373;32;20223;-49
2023/03/11 07:51:35;;;;;;;0.00;0.00;;;;;;;2.65;61.66;94507.16;4378450;32;20276;-53
2023/03/11 07:54:01;;;;;;;0.10;0.10;;;;;;;2.63;61.79;94509.25;4393059;32;20192;-49
2023/03/11 07:56:29;;;;;;;0.70;0.60;;;;;;;2.91;61.34;94518.38;4379742;32;20299;-47
2023/03/11 07:58:56;;;;;;;0.00;0.00;;;;;;;2.75;61.43;94517.62;4393286;32;20286;-49
2023/03/11 08:01:23;;;;;;;0.20;0.20;;;;;;;2.87;61.70;94525.22;4393570;32;20340;-49
2023/03/11 08:03:51;;;;;;;0.70;0.70;;;;;;;2.84;61.25;94524.94;4393603;32;20360;-50
2023/03/11 08:06:19;;;;;;;0.50;0.50;;;;;;;2.88;60.98;94521.53;4393428;32;20295;-49
2023/03/11 08:08:46;;;;;;;0.20;0.20;;;;;;;2.91;60.82;94520.22;4385533;32;20277;-50
2023/03/11 08:11:12;;;;;;;0.03;0.03;;;;;;;2.87;61.74;94524.41;4395280;32;20341;-49
2023/03/11 08:13:44;;;;;;;0.30;0.30;;;;;;;2.89;60.56;94522.31;4393516;32;20292;-50
2023/03/11 08:16:13;;;;;;;0.23;0.23;;;;;;;2.98;60.13;94510.25;4392941;32;20372;-52
2023/03/11 08:18:38;;;;;;;0.20;0.20;;;;;;;2.91;60.23;94520.22;4379579;32;20299;-52
2023/03/11 08:21:06;;;;;;;1.10;0.93;;;;;;;3.07;59.92;94524.38;4391126;32;20269;-50
2023/03/11 08:23:32;;;;;;;0.13;0.13;;;;;;;3.21;59.44;94529.84;4387776;32;20200;-52
2023/03/11 08:25:58;;;;;;;0.00;0.00;;;;;;;3.03;59.30;94544.28;4379084;32;20276;-51
2023/03/11 08:28:23;;;;;;;0.30;0.30;;;;;;;3.13;59.01;94531.16;4391225;32;20255;-53
2023/03/11 08:30:50;;;;;;;0.10;0.10;;;;;;;3.19;58.39;94537.19;4378830;32;20399;-51
2023/03/11 08:33:15;;;;;;;0.13;0.13;;;;;;;3.31;58.24;94541.09;4386681;32;20185;-47
2023/03/11 08:35:40;;;;;;;0.10;0.10;;;;;;;3.07;57.82;94545.34;4395112;32;20402;-51
2023/03/11 08:38:06;;;;;;;0.20;0.20;;;;;;;3.09;57.47;94544.03;4373475;32;20298;-50
2023/03/11 08:40:31;;;;;;;1.47;0.53;;;;;;;3.03;57.89;94541.69;4387948;32;20211;-53
2023/03/11 08:42:56;;;;;;;0.20;0.20;;;;;;;3.13;58.14;94539.03;4387485;32;20184;-50
2023/03/11 08:45:22;;;;;;;0.17;0.17;;;;;;;3.16;58.74;94554.22;4390067;32;20256;-49
2023/03/11 08:47:47;;;;;;;0.27;0.27;;;;;;;3.25;60.97;94542.16;4392077;32;20210;-50
2023/03/11 08:50:16;;;;;;;0.20;0.20;;;;;;;3.08;60.29;94550.31;4378939;32;20199;-53
2023/03/11 08:52:41;;;;;;;0.30;0.30;;;;;;;3.27;60.00;94547.91;4393068;32;20256;-51
2023/03/11 08:55:10;;;;;;;0.20;0.20;;;;;;;3.30;58.52;94554.47;4378792;32;20295;-52
2023/03/11 08:57:36;;;;;;;0.10;0.10;;;;;;;3.30;57.88;94552.63;4370633;32;20200;-48
2023/03/11 09:00:03;;;;;;;1.37;0.20;;;;;;;3.36;57.34;94548.91;4390359;32;20281;-52
2023/03/11 09:02:28;;;;;;;0.60;0.60;;;;;;;3.36;58.92;94558.63;4392093;32;20277;-49
2023/03/11 09:04:54;;;;;;;0.20;0.20;;;;;;;3.29;58.56;94558.13;4389490;32;20343;-50
2023/03/11 09:07:19;;;;;;;0.10;0.10;;;;;;;3.47;57.78;94554.94;4376933;32;20348;-47
2023/03/11 09:09:44;;;;;;;0.10;0.10;;;;;;;3.48;59.17;94558.34;4389439;32;20192;-47
2023/03/11 09:12:12;;;;;;;0.93;0.50;;;;;;;3.39;55.49;94558.09;4393121;32;20189;-51
2023/03/11 09:14:40;;;;;;;0.00;0.00;;;;;;;3.57;56.14;94559.34;4392565;32;20197;-52
2023/03/11 09:17:07;;;;;;;1.13;0.47;;;;;;;3.65;55.46;94556.97;4376223;32;20288;-50
2023/03/11 09:19:33;;;;;;;0.60;0.60;;;;;;;3.35;55.33;94559.66;4388281;32;20351;-49
2023/03/11 09:22:00;;;;;;;0.80;0.80;;;;;;;3.15;55.04;94560.50;4375115;32;20338;-48
2023/03/11 09:24:25;;;;;;;0.53;0.53;;;;;;;3.20;54.76;94563.12;4392328;32;20177;-50
2023/03/11 09:26:50;;;;;;;0.93;0.93;;;;;;;3.22;55.33;94566.25;4392223;32;20314;-48
2023/03/11 09:29:16;;;;;;;0.20;0.20;;;;;;;3.32;56.06;94562.84;4392281;32;20238;-47
2023/03/11 09:31:41;;;;;;;0.30;0.30;;;;;;;3.31;55.39;94558.66;4379449;32;20188;-48
2023/03/11 09:34:06;;;;;;;0.33;0.33;;;;;;;3.35;56.55;94563.06;4377940;32;20189;-47
2023/03/11 09:36:32;;;;;;;0.10;0.10;;;;;;;3.43;54.95;94556.50;4392183;32;20251;-51
2023/03/11 09:38:59;;;;;;;0.00;0.00;;;;;;;3.48;55.45;94555.72;4373799;32;20227;-49
2023/03/11 09:41:32;;;;;;;0.17;0.17;;;;;;;3.59;53.87;94559.84;4382341;32;20185;-49
2023/03/11 09:44:01;;;;;;;0.07;0.07;;;;;;;3.51;53.18;94565.66;4374982;32;20366;-51
2023/03/11 09:46:41;;;;;;;0.00;0.00;;;;;;;3.52;53.95;94568.03;4392564;32;20351;-49
2023/03/11 09:49:48;;;;;;;0.40;0.40;;;;;;;3.64;53.62;94560.63;4385984;32;20355;-50
2023/03/11 09:52:18;;;;;;;0.10;0.10;;;;;;;3.82;51.71;94561.88;4362224;32;20409;-52
2023/03/11 09:54:47;;;;;;;0.00;0.00;;;;;;;3.98;52.52;94555.47;4391740;32;20280;-48
2023/03/11 09:57:26;;;;;;;0.50;0.50;;;;;;;4.02;51.15;94555.72;4386362;32;20299;-56
2023/03/11 09:59:53;;;;;;;0.43;0.43;;;;;;;4.04;50.05;94564.91;4383218;32;20277;-47
2023/03/11 10:02:25;;;;;;;0.13;0.13;;;;;;;3.92;50.72;94561.81;4384334;32;20287;-49
2023/03/11 10:05:00;;;;;;;0.10;0.10;;;;;;;4.00;50.55;94574.37;4377296;32;20296;-49
2023/03/11 10:07:36;;;;;;;0.20;0.20;;;;;;;3.97;50.33;94577.53;4390349;32;20299;-48
2023/03/11 10:10:02;;;;;;;0.43;0.30;;;;;;;3.78;50.34;94579.97;4358634;32;20310;-46
2023/03/11 10:12:39;;;;;;;0.00;0.00;;;;;;;4.00;52.63;94577.00;4387618;32;20280;-46
2023/03/11 10:15:14;;;;;;;0.10;0.10;;;;;;;4.29;52.49;94589.44;4391145;32;20192;-51
2023/03/11 10:17:58;;;;;;;1.37;0.23;;;;;;;4.43;50.94;94590.41;4389688;32;20321;-51
2023/03/11 10:20:36;;;;;;;0.00;0.00;;;;;;;4.49;50.05;94586.69;4385097;32;20350;-50
2023/03/11 10:23:09;;;;;;;0.20;0.20;;;;;;;4.52;48.95;94582.75;4390083;32;20363;-51
2023/03/11 10:25:57;;;;;;;0.50;0.50;;;;;;;4.87;48.84;94568.53;4376878;32;20284;-49
2023/03/11 10:28:32;;;;;;;0.03;0.03;;;;;;;4.90;50.17;94578.50;4376895;32;20284;-48
2023/03/11 10:31:17;;;;;;;0.07;0.07;;;;;;;4.94;46.43;94582.94;4386384;32;20284;-49
2023/03/11 10:33:48;;;;;;;0.10;0.10;;;;;;;5.00;47.46;94586.28;4384175;32;20287;-52
2023/03/11 10:36:22;;;;;;;0.10;0.10;;;;;;;4.98;47.29;94585.81;4387659;32;20280;-51
2023/03/11 10:38:48;;;;;;;0.10;0.00;;;;;;;5.35;49.30;94587.81;4391538;32;20290;-49
2023/03/11 10:41:46;;;;;;;0.10;0.10;;;;;;;5.37;47.97;94593.59;4389586;32;20323;-52
2023/03/11 10:44:22;;;;;;;0.70;0.37;;;;;;;5.21;46.01;94595.56;4383487;32;20288;-50
2023/03/11 10:46:48;;;;;;;0.30;0.30;;;;;;;5.45;46.09;94592.97;4372034;32;20369;-51
2023/03/11 10:49:15;;;;;;;0.10;0.10;;;;;;;5.42;45.86;94594.31;4382230;32;20288;-49
2023/03/11 10:51:46;;;;;;;0.07;0.07;;;;;;;5.44;46.60;94594.81;4389947;32;20211;-49
2023/03/11 10:54:33;;;;;;;0.20;0.20;;;;;;;5.30;45.03;94601.00;4374702;32;20288;-50
2023/03/11 10:57:04;;;;;;;0.57;0.47;;;;;;;5.26;48.17;94595.53;4375897;32;20343;-51
2023/03/11 10:59:44;;;;;;;0.10;0.10;;;;;;;5.33;46.14;94598.63;4371757;32;20352;-52
2023/03/11 11:02:40;;;;;;;0.30;0.30;;;;;;;5.35;44.08;94593.09;4391392;32;20292;-49
2023/03/11 11:05:14;;;;;;;0.10;0.10;;;;;;;5.50;45.53;94600.81;4390822;32;20277;-51
2023/03/11 11:07:40;;;;;;;0.00;0.00;;;;;;;5.23;44.96;94601.31;4380603;32;20353;-52
2023/03/11 11:10:11;;;;;;;1.43;0.43;;;;;;;5.20;45.91;94599.25;4393896;32;20296;-49
2023/03/11 11:12:56;;;;;;;11.30;0.60;;;;;;;5.23;45.30;94601.31;4391946;32;20230;-52
2023/03/11 11:15:22;;;;;;;0.47;0.20;;;;;;;5.40;45.78;94596.44;4374993;32;20319;-51
2023/03/11 11:17:49;;;;;;;0.13;0.13;;;;;;;5.51;46.25;94597.91;4393192;32;20299;-50
2023/03/11 11:20:18;;;;;;;0.87;0.30;;;;;;;5.73;46.25;94588.72;4375032;32;20284;-50
2023/03/11 11:22:49;;;;;;;0.37;0.37;;;;;;;5.68;46.69;94591.41;4374921;32;20276;-50
2023/03/11 11:25:28;;;;;;;0.10;0.10;;;;;;;5.56;46.94;94591.03;4385909;32;20284;-50
2023/03/11 11:27:57;;;;;;;0.30;0.30;;;;;;;5.60;46.79;94594.69;4376540;32;20295;-51
2023/03/11 11:30:23;;;;;;;0.03;0.03;;;;;;;5.55;47.00;94597.34;4373392;32;20280;-51
2023/03/11 11:32:52;;;;;;;0.40;0.40;;;;;;;5.31;47.67;94607.84;4379272;32;20295;-49
2023/03/11 11:35:19;;;;;;;0.23;0.23;;;;;;;5.41;47.34;94590.09;4388886;32;20272;-51
2023/03/11 11:37:50;;;;;;;0.10;0.10;;;;;;;5.36;47.62;94603.31;4393363;32;20271;-54
2023/03/11 11:40:15;;;;;;;0.00;0.00;;;;;;;5.19;48.70;94610.84;4381992;32;20314;-50
2023/03/11 11:42:49;;;;;;;0.00;0.00;;;;;;;5.20;48.52;94598.50;4394407;32;20276;-52